Historique des stations

Orages en cours, pour les suivre, cliquer ici

Station météo de Issoudun

Altitude de la station : 141 m







Données météorologiques pour le 12/08/2020
Date
Heure
Températures Humidité Point de rosée Vitesse
du vent
Direction Rafales Windchill Pression Pluviométrie
Cumul
Date
Heure
Températures Humidité Point de rosée Vitesse
du vent
Direction Rafales Windchill Pression Pluviométrie
Cumul
12/08/2020 23:2919.5 °C83 %16.7 °C-SO64 km/h19.4 1011 hPa1 mm
12/08/2020 23:1419.6 °C82 %16.7 °C-SO64 km/h19.4 1011 hPa1 mm
12/08/2020 22:5919.5 °C81 %16.1 °C23 km/hSSO64 km/h17.2 1011 hPa1 mm
12/08/2020 22:4421.6 °C70 %16.1 °C60 km/hSSO64 km/h17.8 1011 hPa0.6 mm
12/08/2020 22:2922.1 °C78 %18.3 °C-SO26 km/h22.2 1011 hPa0.6 mm
12/08/2020 22:1422.2 °C78 %18.3 °C-OSO26 km/h22.2 1011 hPa0.6 mm
12/08/2020 21:5922.4 °C81 %18.9 °C2 km/hSO26 km/h22.2 1011 hPa0.6 mm
12/08/2020 21:4423.3 °C76 %18.9 °C-OSO26 km/h23.3 1010 hPa0.6 mm
12/08/2020 21:2925.4 °C72 %20.0 °C-SO26 km/h25.6 1010 hPa0.2 mm
12/08/2020 21:1426.6 °C66 %19.4 °C-OSO26 km/h26.7 1009 hPa-
12/08/2020 20:5927.0 °C64 %19.4 °C-O26 km/h27.2 1009 hPa-
12/08/2020 20:4427.5 °C62 %19.4 °C-O26 km/h27.8 1009 hPa-
12/08/2020 20:2927.7 °C61 %19.4 °C-O26 km/h27.8 1009 hPa-
12/08/2020 20:1428.2 °C58 %18.9 °C-O26 km/h28.3 1009 hPa-
12/08/2020 19:5928.4 °C57 %18.9 °C-O26 km/h28.3 1009 hPa-
12/08/2020 19:4428.6 °C56 %18.9 °C-O26 km/h28.9 1009 hPa-
12/08/2020 19:2928.9 °C54 %18.9 °C-OSO26 km/h28.9 1009 hPa-
12/08/2020 19:1429.4 °C49 %17.8 °C-SO26 km/h29.4 1008 hPa-
12/08/2020 18:5929.6 °C48 %17.2 °C-SO26 km/h29.4 1008 hPa-
12/08/2020 18:4430.1 °C47 %17.8 °C-SO26 km/h30.0 1008 hPa-
12/08/2020 18:2930.5 °C46 %17.8 °C-SO26 km/h30.6 1008 hPa-
12/08/2020 18:1430.0 °C47 %17.2 °C-OSO26 km/h30.0 1008 hPa-
12/08/2020 17:5930.1 °C46 %17.2 °C-OSO26 km/h30.0 1009 hPa-
12/08/2020 17:4429.9 °C54 %19.4 °C-OSO26 km/h30.0 1009 hPa-
12/08/2020 17:2929.0 °C52 %18.3 °C-O26 km/h28.9 1009 hPa-
12/08/2020 17:1429.0 °C52 %18.3 °C-OSO26 km/h28.9 1009 hPa-
12/08/2020 16:5929.2 °C53 %18.3 °C-SO26 km/h29.4 1010 hPa-
12/08/2020 16:4429.2 °C54 %18.9 °C-SSO26 km/h29.4 1010 hPa-
12/08/2020 16:2929.4 °C54 %18.9 °C-OSO26 km/h29.4 1010 hPa-
12/08/2020 16:1428.9 °C56 %19.4 °C13 km/hO26 km/h28.9 1010 hPa-
12/08/2020 15:5929.0 °C55 %18.9 °C-O26 km/h28.9 1010 hPa-
12/08/2020 15:4429.4 °C51 %18.3 °C-SSO26 km/h29.4 1010 hPa-
12/08/2020 15:2929.6 °C52 %18.9 °C-O26 km/h29.4 1010 hPa-
12/08/2020 15:1429.2 °C52 %18.3 °C-SO26 km/h29.4 1010 hPa-
12/08/2020 14:5929.4 °C50 %17.8 °C-SO26 km/h29.4 1010 hPa-
12/08/2020 14:4429.8 °C49 %17.8 °C-SO26 km/h30.0 1010 hPa-
12/08/2020 14:3029.8 °C49 %17.8 °C-ONO26 km/h30.0 1010 hPa-
12/08/2020 14:1429.9 °C48 %17.8 °C-SO26 km/h30.0 1010 hPa-
12/08/2020 14:0030.2 °C47 %17.8 °C14 km/hSSO26 km/h30.0 1011 hPa-
12/08/2020 13:4530.5 °C46 %17.8 °C11 km/hSSO26 km/h30.6 1010 hPa-
12/08/2020 13:3030.3 °C49 %18.3 °C8 km/hSO21 km/h30.6 1010 hPa-
12/08/2020 13:1529.4 °C52 %18.3 °C2 km/hO16 km/h29.4 1010 hPa-
12/08/2020 13:0028.8 °C54 %18.3 °C-SO16 km/h28.9 1010 hPa-
12/08/2020 12:4428.5 °C56 %18.9 °C-SO16 km/h28.3 1010 hPa-
12/08/2020 12:2928.3 °C57 %18.9 °C-OSO16 km/h28.3 1010 hPa-
12/08/2020 12:1428.0 °C60 %19.4 °C-SSO16 km/h27.8 1010 hPa-
12/08/2020 11:5928.0 °C55 %18.3 °C-S16 km/h27.8 1010 hPa-
12/08/2020 11:4427.9 °C55 %17.8 °C-SE16 km/h27.8 1010 hPa-
12/08/2020 11:2927.8 °C55 %17.8 °C-SSE16 km/h27.8 1010 hPa-
12/08/2020 11:1427.6 °C56 %17.8 °C-ESE16 km/h27.8 1010 hPa-
12/08/2020 10:5927.3 °C56 %17.8 °C-SSE16 km/h27.2 1010 hPa-
12/08/2020 10:4427.0 °C56 %17.2 °C-SE14 km/h27.2 1010 hPa-
12/08/2020 10:2927.1 °C56 %17.2 °C-E14 km/h27.2 1010 hPa-
12/08/2020 10:1426.1 °C59 %17.2 °C-ESE14 km/h26.1 1010 hPa-
12/08/2020 09:5926.3 °C58 %17.2 °C-ENE14 km/h26.1 1010 hPa-
12/08/2020 09:4425.7 °C59 %17.2 °C-ENE14 km/h25.6 1010 hPa-
12/08/2020 09:2925.2 °C62 %17.2 °C-ESE13 km/h25.0 1010 hPa-
12/08/2020 09:1424.8 °C63 %17.2 °C-E10 km/h25.0 1010 hPa-
12/08/2020 08:5924.6 °C63 %17.2 °C-E10 km/h24.4 1010 hPa-
12/08/2020 08:4423.4 °C66 %16.7 °C-ESE10 km/h23.3 1010 hPa-
12/08/2020 08:2821.7 °C74 %16.7 °C-E6 km/h21.7 1010 hPa-
12/08/2020 08:1421.2 °C75 %16.7 °C-SSE6 km/h21.1 1010 hPa-
12/08/2020 07:5920.9 °C75 %16.1 °C-SSE6 km/h21.1 1010 hPa-
12/08/2020 07:4420.7 °C76 %16.1 °C-SE6 km/h20.6 1010 hPa-
12/08/2020 07:2920.7 °C76 %16.1 °C-ESE6 km/h20.6 1010 hPa-
12/08/2020 07:1420.4 °C76 %16.1 °C-ESE6 km/h20.6 1010 hPa-
12/08/2020 06:5919.9 °C78 %16.1 °C-E6 km/h20.0 1010 hPa-
12/08/2020 06:4419.6 °C80 %16.1 °C-E6 km/h19.4 1010 hPa-
12/08/2020 06:2919.4 °C79 %15.6 °C-E6 km/h19.4 1010 hPa-
12/08/2020 06:1419.7 °C79 %16.1 °C-ESE6 km/h20.0 1010 hPa-
12/08/2020 05:5920.0 °C78 %16.1 °C-ESE6 km/h20.0 1010 hPa-
12/08/2020 05:4420.1 °C78 %16.1 °C-ESE6 km/h20.0 1010 hPa-
12/08/2020 05:3020.4 °C77 %16.1 °C-SE6 km/h20.6 1010 hPa-
12/08/2020 05:1520.9 °C76 %16.7 °C-ESE6 km/h21.1 1010 hPa-
12/08/2020 05:0020.3 °C78 %16.7 °C-ESE6 km/h20.6 1010 hPa-
12/08/2020 04:4520.7 °C77 %16.7 °C-ESE5 km/h20.6 1010 hPa-
12/08/2020 04:3020.2 °C79 %16.7 °C-E5 km/h20.0 1010 hPa-
12/08/2020 04:1520.6 °C77 %16.7 °C-E5 km/h20.6 1010 hPa-
12/08/2020 04:0020.5 °C77 %16.1 °C-ENE5 km/h20.6 1011 hPa-
12/08/2020 03:4521.2 °C75 %16.7 °C-SE5 km/h21.1 1010 hPa-
12/08/2020 03:2921.6 °C74 %16.7 °C-SE5 km/h21.7 1010 hPa-
12/08/2020 03:1421.3 °C75 %16.7 °C-ESE5 km/h21.1 1010 hPa-
12/08/2020 02:5921.6 °C75 %17.2 °C-ESE5 km/h21.7 1011 hPa-
12/08/2020 02:4422.4 °C72 %17.2 °C-ESE5 km/h22.2 1011 hPa-
12/08/2020 02:2922.2 °C72 %17.2 °C-ENE5 km/h22.2 1011 hPa-
12/08/2020 02:1422.2 °C73 %17.2 °C-ENE5 km/h22.2 1011 hPa-
12/08/2020 01:5922.7 °C71 %17.2 °C-ENE5 km/h22.8 1011 hPa-
12/08/2020 01:4423.1 °C71 %17.8 °C-ENE5 km/h23.3 1011 hPa-
12/08/2020 01:2923.4 °C72 %18.3 °C-ESE5 km/h23.3 1011 hPa-
12/08/2020 01:1423.9 °C70 %18.3 °C-ENE5 km/h23.9 1011 hPa-
12/08/2020 00:5924.4 °C68 %18.3 °C-ESE5 km/h24.4 1011 hPa-
12/08/2020 00:4424.3 °C72 %18.9 °C-ESE5 km/h24.4 1011 hPa-
12/08/2020 00:2924.6 °C71 %18.9 °C-SE5 km/h24.4 1011 hPa-
12/08/2020 00:1425.1 °C70 %19.4 °C---25.0 1011 hPa-


Minima :

Température : 19.4 °C
Humidité : 46 %
Point de rosée : 15.6 °C
Vent moyen : 2 km/h
Windchill : 17.2
Pression atm. : 1008 hPa
Maxima :

Température : 30.5 °C
Humidité : 83 %
Point de rosée : 20.0 °C
Vent moyen : 60 km/h
Windchill : 30.6
Pression atm. : 1011 hPa
Rafales max : 64 km/h
Cumul de pluie sur 24H : 1 mm

Issoudun est une commune du département Indre (36), elle est soumise a un climat océanique dégradé (norme climatique d'Orléans-Bricy).
La station météorologique du réseau de l'association la plus proche de Issoudun est celle de Ménétréols-sous-Vatan



Icône Facebook Association Météo Centre Icône Twitter Association Météo Centre Icône Chaîne Youtube Association Météo Centre Icône contact Association Météo Centre Icône Insta Association Météo Centre